KDVOKFAT

Guest
Details From KDVO - GNOSS FLD
To KFAT - Fresno Air Terminal
Flight Number -
Tags generated
Created
Modified
Stats Distance 158 nm / 293 km
Max Altitude 15,400 ft / 4,694 m
Waypoints 3
Social Downloads 1
Likes 0
Share VATSIM

Download

Looking for another format? Having issues loading an existing format? Contact us
Advertisement - Login to hide

Notes

Basic altitude profile: - Ascent Rate: 2500ft/min - Ascent Speed: 250kts - Cruise Altitude: 35000ft - Cruise Speed: 420kts - Descent Rate: 1500ft/min - Descent Speed: 250kts

Route

KDVO PATYY KFAT

ID Type Via Altitude Latitude Longitude Leg Dist Tot Dist Heading (true) Name
O KDVO APT - 0 ft / 0 m 38.14360˚ -122.55612˚ - 0 nm - GNOSS FLD
PATYY FIX - 15,400 ft / 4,694 m 37.49156˚ -121.04998˚ 81 nm 81 nm 118° / 119° -
O KFAT APT - 0 ft / 0 m 36.77651˚ -119.71897˚ 76 nm 158 nm 124° / 124° Fresno Air Terminal

Altitude Profile

Advertisement - Login to hide

KDVO

Details ICAO KDVO
Name GNOSS FLD
Region United States
Timezone America/Los_Angeles (UTC-8.0)
Stats Elevation 2 ft / 1 m (AMSL)
Location 38.143602° -122.556123°
Runways 1
Magnetic Variation 13.587° E

METAR

KDVO 220035Z AUTO 29009KT 10SM CLR 13/02 A3016 RMK AO2

Decode

TAF

Not found

Departure Runways

ID Width Length Bearing (true) Bearing (mag) Surface Threshold Offset Overrun Length
13 75 ft / 23 m 3,304 ft / 1,007 m 148.57° 134.98° Asphalt 0 ft / 0 m 98 ft / 30 m
31 75 ft / 23 m 3,304 ft / 1,007 m 328.57° 314.98° Asphalt 0 ft / 0 m 125 ft / 38 m

KFAT

Details ICAO KFAT (FAT)
Name Fresno Air Terminal
Region United States
Timezone America/Los_Angeles (UTC-8.0)
Stats Elevation 335 ft / 102 m (AMSL)
Location 36.776514° -119.718966°
Runways 2
Magnetic Variation 12.813° E

METAR

KFAT 212353Z VRB03KT 10SM FEW060 FEW090 FEW150 14/M09 A3015 RMK AO2 SLP210 T01391089 10144 20083 56007

Decode

TAF

KFAT 212331Z 2200/2224 00000KT P6SM FEW060 FM221000 10005KT P6SM OVC100 FM221800 23010KT P6SM OVC070 FM222100 29015KT P6SM BKN050

Decode

Destination Runways

ID Width Length Bearing (true) Bearing (mag) Surface Threshold Offset Overrun Length
11L 150 ft / 46 m 9,242 ft / 2,817 m 125.47° 112.66° Asphalt 0 ft / 0 m 1,066 ft / 325 m
11R 150 ft / 46 m 8,010 ft / 2,441 m 125.49° 112.68° Asphalt 0 ft / 0 m 1,001 ft / 305 m
29L 150 ft / 46 m 8,010 ft / 2,441 m 305.50° 292.69° Asphalt 0 ft / 0 m 1,001 ft / 305 m
29R 150 ft / 46 m 9,242 ft / 2,817 m 305.49° 292.68° Asphalt 312 ft / 95 m 850 ft / 259 m

Approach Navaids

Runway Type Ident Frequency Range Bearing (true) Bearing (mag) Slope Elevation
11L Localiser IRPW 111.30 MHz 18 nm / 33 km 125.49° 112.68° - 333 ft / 101 m (AMSL)
11L DME IRPW 111.30 MHz 18 nm / 33 km - - - 336 ft / 102 m (AMSL)
29R Localiser IFAT 111.30 MHz 18 nm / 33 km 305.48° 292.66° - 331 ft / 101 m (AMSL)
29R Glidescope IFAT 111.30 MHz 10 nm / 19 km 305.48° 292.67° 3.00° 332 ft / 101 m (AMSL)
29R DME IFAT 111.30 MHz 18 nm / 33 km - - - 347 ft / 106 m (AMSL)

Popular Alternatives